sensor_id;sensor_type;location;lat;lon;timestamp;pressure;altitude;pressure_sealevel;temperature;humidity
76551;BME280;65393;53.160;18.170;2022-11-20T16:08:04;100551.65;;;-0.55;80.27
76551;BME280;65393;53.160;18.170;2022-11-20T16:10:30;100547.66;;;-0.53;80.11
76551;BME280;65393;53.160;18.170;2022-11-20T16:12:56;100548.89;;;-0.52;80.43
76551;BME280;65393;53.160;18.170;2022-11-20T16:15:41;100547.31;;;-0.53;80.22
76551;BME280;65393;53.160;18.170;2022-11-20T16:18:16;100543.98;;;-0.56;80.32
76551;BME280;65393;53.160;18.170;2022-11-20T16:20:45;100545.36;;;-0.58;80.32
76551;BME280;65393;53.160;18.170;2022-11-20T16:23:11;100544.84;;;-0.58;80.45
76551;BME280;65393;53.160;18.170;2022-11-20T16:25:37;100542.23;;;-0.57;80.26
76551;BME280;65393;53.160;18.170;2022-11-20T16:28:04;100539.77;;;-0.58;80.11
76551;BME280;65393;53.160;18.170;2022-11-20T16:30:32;100538.20;;;-0.60;80.38
76551;BME280;65393;53.160;18.170;2022-11-20T16:32:59;100538.91;;;-0.63;80.47
76551;BME280;65393;53.160;18.170;2022-11-20T16:35:30;100538.54;;;-0.65;80.56
76551;BME280;65393;53.160;18.170;2022-11-20T16:37:57;100540.13;;;-0.64;80.49
76551;BME280;65393;53.160;18.170;2022-11-20T16:40:24;100537.00;;;-0.62;80.44
76551;BME280;65393;53.160;18.170;2022-11-20T16:42:51;100537.52;;;-0.62;80.47
76551;BME280;65393;53.160;18.170;2022-11-20T16:45:17;100536.80;;;-0.64;80.49
76551;BME280;65393;53.160;18.170;2022-11-20T16:47:43;100535.23;;;-0.64;80.44
76551;BME280;65393;53.160;18.170;2022-11-20T16:50:10;100534.70;;;-0.65;80.72
76551;BME280;65393;53.160;18.170;2022-11-20T16:52:36;100535.41;;;-0.63;80.23
76551;BME280;65393;53.160;18.170;2022-11-20T16:55:02;100537.33;;;-0.59;80.58
76551;BME280;65393;53.160;18.170;2022-11-20T16:57:30;100539.78;;;-0.59;80.45
76551;BME280;65393;53.160;18.170;2022-11-20T16:59:58;100538.90;;;-0.61;80.53
76551;BME280;65393;53.160;18.170;2022-11-20T17:02:25;100536.98;;;-0.63;80.81
76551;BME280;65393;53.160;18.170;2022-11-20T17:04:51;100536.98;;;-0.63;81.03
76551;BME280;65393;53.160;18.170;2022-11-20T17:07:18;100536.29;;;-0.61;80.95
76551;BME280;65393;53.160;18.170;2022-11-20T17:09:44;100532.80;;;-0.60;80.58
76551;BME280;65393;53.160;18.170;2022-11-20T17:12:10;100532.61;;;-0.61;80.74
76551;BME280;65393;53.160;18.170;2022-11-20T17:14:36;100535.42;;;-0.61;80.87
76551;BME280;65393;53.160;18.170;2022-11-20T17:17:02;100531.40;;;-0.65;80.71
76551;BME280;65393;53.160;18.170;2022-11-20T17:19:28;100530.00;;;-0.65;80.67
76551;BME280;65393;53.160;18.170;2022-11-20T17:21:54;100532.63;;;-0.62;80.58
76551;BME280;65393;53.160;18.170;2022-11-20T17:24:20;100530.00;;;-0.60;80.63
76551;BME280;65393;53.160;18.170;2022-11-20T17:26:47;100529.48;;;-0.60;80.78
76551;BME280;65393;53.160;18.170;2022-11-20T17:29:15;100529.15;;;-0.62;80.64
76551;BME280;65393;53.160;18.170;2022-11-20T17:31:43;100526.34;;;-0.64;80.61
76551;BME280;65393;53.160;18.170;2022-11-20T17:34:12;100524.23;;;-0.66;80.93
76551;BME280;65393;53.160;18.170;2022-11-20T17:36:38;100524.95;;;-0.65;80.76
76551;BME280;65393;53.160;18.170;2022-11-20T17:39:06;100519.04;;;-0.63;80.60
76551;BME280;65393;53.160;18.170;2022-11-20T17:41:32;100518.88;;;-0.62;80.75
76551;BME280;65393;53.160;18.170;2022-11-20T17:44:00;100515.02;;;-0.65;80.68
76551;BME280;65393;53.160;18.170;2022-11-20T17:46:29;100513.27;;;-0.67;80.82
76551;BME280;65393;53.160;18.170;2022-11-20T17:48:58;100517.44;;;-0.67;80.95
76551;BME280;65393;53.160;18.170;2022-11-20T17:51:26;100513.45;;;-0.65;80.91
76551;BME280;65393;53.160;18.170;2022-11-20T17:53:55;100512.58;;;-0.65;81.06
76551;BME280;65393;53.160;18.170;2022-11-20T17:56:22;100509.60;;;-0.66;80.93
76551;BME280;65393;53.160;18.170;2022-11-20T17:59:11;100503.32;;;-0.68;81.17
76551;BME280;65393;53.160;18.170;2022-11-20T18:01:39;100498.60;;;-0.69;81.37
76551;BME280;65393;53.160;18.170;2022-11-20T18:04:07;100499.48;;;-0.66;81.12
76551;BME280;65393;53.160;18.170;2022-11-20T18:06:33;100500.19;;;-0.66;81.10
76551;BME280;65393;53.160;18.170;2022-11-20T18:09:01;100497.73;;;-0.67;81.36
76551;BME280;65393;53.160;18.170;2022-11-20T18:11:33;100496.15;;;-0.70;81.48
76551;BME280;65393;53.160;18.170;2022-11-20T18:14:01;100494.60;;;-0.72;81.24
76551;BME280;65393;53.160;18.170;2022-11-20T18:16:52;100493.20;;;-0.71;81.10
76551;BME280;65393;53.160;18.170;2022-11-20T18:19:21;100489.02;;;-0.68;81.28
76551;BME280;65393;53.160;18.170;2022-11-20T18:21:49;100488.33;;;-0.67;81.30
76551;BME280;65393;53.160;18.170;2022-11-20T18:24:16;100488.85;;;-0.68;81.06
76551;BME280;65393;53.160;18.170;2022-11-20T18:26:42;100485.36;;;-0.68;81.42
76551;BME280;65393;53.160;18.170;2022-11-20T18:29:08;100486.40;;;-0.69;81.29
76551;BME280;65393;53.160;18.170;2022-11-20T18:31:35;100485.20;;;-0.67;81.44
76551;BME280;65393;53.160;18.170;2022-11-20T18:34:01;100482.41;;;-0.66;81.35
76551;BME280;65393;53.160;18.170;2022-11-20T18:36:28;100478.04;;;-0.68;81.69
76551;BME280;65393;53.160;18.170;2022-11-20T18:38:59;100478.56;;;-0.70;81.75
76551;BME280;65393;53.160;18.170;2022-11-20T18:41:30;100479.44;;;-0.72;81.77
76551;BME280;65393;53.160;18.170;2022-11-20T18:44:17;100484.14;;;-0.69;81.40
76551;BME280;65393;53.160;18.170;2022-11-20T18:47:07;100482.25;;;-0.64;81.31
76551;BME280;65393;53.160;18.170;2022-11-20T18:49:35;100482.61;;;-0.62;81.39
76551;BME280;65393;53.160;18.170;2022-11-20T18:52:01;100486.45;;;-0.62;81.27
76551;BME280;65393;53.160;18.170;2022-11-20T18:54:30;100485.22;;;-0.63;81.10
76551;BME280;65393;53.160;18.170;2022-11-20T18:56:57;100491.48;;;-0.64;80.99
76551;BME280;65393;53.160;18.170;2022-11-20T18:59:22;100493.06;;;-0.63;80.76
76551;BME280;65393;53.160;18.170;2022-11-20T19:01:48;100492.55;;;-0.62;80.78
76551;BME280;65393;53.160;18.170;2022-11-20T19:04:16;100489.40;;;-0.63;80.87
76551;BME280;65393;53.160;18.170;2022-11-20T19:06:45;100495.83;;;-0.66;80.89
76551;BME280;65393;53.160;18.170;2022-11-20T19:09:15;100491.98;;;-0.68;81.16
76551;BME280;65393;53.160;18.170;2022-11-20T19:11:41;100489.70;;;-0.70;81.13
76551;BME280;65393;53.160;18.170;2022-11-20T19:14:07;100491.09;;;-0.70;81.05
76551;BME280;65393;53.160;18.170;2022-11-20T19:16:33;100490.08;;;-0.67;80.95
76551;BME280;65393;53.160;18.170;2022-11-20T19:19:01;100489.23;;;-0.65;81.11
76551;BME280;65393;53.160;18.170;2022-11-20T19:21:27;100488.88;;;-0.64;80.88
76551;BME280;65393;53.160;18.170;2022-11-20T19:23:55;100492.89;;;-0.63;80.85
76551;BME280;65393;53.160;18.170;2022-11-20T19:26:22;100488.88;;;-0.64;80.86
76551;BME280;65393;53.160;18.170;2022-11-20T19:28:48;100491.13;;;-0.65;81.05
76551;BME280;65393;53.160;18.170;2022-11-20T19:31:17;100491.31;;;-0.64;81.00
76551;BME280;65393;53.160;18.170;2022-11-20T19:33:44;100494.81;;;-0.63;80.92
76551;BME280;65393;53.160;18.170;2022-11-20T19:36:15;100494.46;;;-0.63;80.96
76551;BME280;65393;53.160;18.170;2022-11-20T19:38:44;100496.90;;;-0.64;80.80
76551;BME280;65393;53.160;18.170;2022-11-20T19:41:13;100492.52;;;-0.66;80.61
76551;BME280;65393;53.160;18.170;2022-11-20T19:43:39;100496.70;;;-0.67;80.97
76551;BME280;65393;53.160;18.170;2022-11-20T19:46:06;100497.39;;;-0.68;80.96
76551;BME280;65393;53.160;18.170;2022-11-20T19:48:33;100497.23;;;-0.64;80.92
76551;BME280;65393;53.160;18.170;2022-11-20T19:51:14;100491.15;;;-0.59;81.01
76551;BME280;65393;53.160;18.170;2022-11-20T19:53:41;100489.58;;;-0.58;81.37
76551;BME280;65393;53.160;18.170;2022-11-20T19:56:07;100491.48;;;-0.60;81.27
76551;BME280;65393;53.160;18.170;2022-11-20T19:58:34;100488.88;;;-0.62;81.23
76551;BME280;65393;53.160;18.170;2022-11-20T20:01:09;100487.13;;;-0.64;81.31
76551;BME280;65393;53.160;18.170;2022-11-20T20:03:36;100485.04;;;-0.64;81.40
76551;BME280;65393;53.160;18.170;2022-11-20T20:06:05;100485.06;;;-0.61;81.29
76551;BME280;65393;53.160;18.170;2022-11-20T20:08:32;100485.73;;;-0.60;81.23
76551;BME280;65393;53.160;18.170;2022-11-20T20:10:58;100483.98;;;-0.61;81.19
76551;BME280;65393;53.160;18.170;2022-11-20T20:13:25;100480.69;;;-0.63;81.11
76551;BME280;65393;53.160;18.170;2022-11-20T20:15:51;100480.52;;;-0.64;81.40
76551;BME280;65393;53.160;18.170;2022-11-20T20:18:18;100483.64;;;-0.65;81.32
76551;BME280;65393;53.160;18.170;2022-11-20T20:20:44;100482.26;;;-0.63;81.02
76551;BME280;65393;53.160;18.170;2022-11-20T20:23:10;100481.90;;;-0.60;81.37
76551;BME280;65393;53.160;18.170;2022-11-20T20:25:36;100477.55;;;-0.58;81.06
76551;BME280;65393;53.160;18.170;2022-11-20T20:28:04;100479.47;;;-0.59;81.26
76551;BME280;65393;53.160;18.170;2022-11-20T20:30:30;100480.16;;;-0.60;81.26
76551;BME280;65393;53.160;18.170;2022-11-20T20:32:56;100479.98;;;-0.62;80.93
76551;BME280;65393;53.160;18.170;2022-11-20T20:35:22;100484.88;;;-0.63;81.22
76551;BME280;65393;53.160;18.170;2022-11-20T20:37:48;100485.06;;;-0.61;81.09
76551;BME280;65393;53.160;18.170;2022-11-20T20:40:14;100487.83;;;-0.59;80.90
76551;BME280;65393;53.160;18.170;2022-11-20T20:42:40;100486.61;;;-0.61;80.90
76551;BME280;65393;53.160;18.170;2022-11-20T20:45:07;100488.18;;;-0.64;81.15
76551;BME280;65393;53.160;18.170;2022-11-20T20:47:35;100488.17;;;-0.66;80.92
76551;BME280;65393;53.160;18.170;2022-11-20T20:50:06;100489.72;;;-0.68;80.98
76551;BME280;65393;53.160;18.170;2022-11-20T20:52:34;100490.44;;;-0.65;80.84
76551;BME280;65393;53.160;18.170;2022-11-20T20:55:00;100488.88;;;-0.64;80.37
76551;BME280;65393;53.160;18.170;2022-11-20T20:57:26;100487.65;;;-0.64;80.63
76551;BME280;65393;53.160;18.170;2022-11-20T20:59:53;100484.86;;;-0.64;80.35
76551;BME280;65393;53.160;18.170;2022-11-20T21:02:21;100483.12;;;-0.64;80.33
76551;BME280;65393;53.160;18.170;2022-11-20T21:04:48;100481.38;;;-0.65;80.58
76551;BME280;65393;53.160;18.170;2022-11-20T21:07:15;100479.13;;;-0.63;80.39
76551;BME280;65393;53.160;18.170;2022-11-20T21:09:41;100479.46;;;-0.60;80.47
76551;BME280;65393;53.160;18.170;2022-11-20T21:12:08;100477.38;;;-0.59;80.36
76551;BME280;65393;53.160;18.170;2022-11-20T21:14:34;100471.27;;;-0.59;80.43
76551;BME280;65393;53.160;18.170;2022-11-20T21:17:00;100473.02;;;-0.60;80.65
76551;BME280;65393;53.160;18.170;2022-11-20T21:19:26;100468.49;;;-0.62;80.44
76551;BME280;65393;53.160;18.170;2022-11-20T21:21:52;100474.59;;;-0.60;80.31
76551;BME280;65393;53.160;18.170;2022-11-20T21:24:27;100471.47;;;-0.56;80.20
76551;BME280;65393;53.160;18.170;2022-11-20T21:26:54;100471.13;;;-0.53;80.29
76551;BME280;65393;53.160;18.170;2022-11-20T21:29:21;100466.95;;;-0.53;80.21
76551;BME280;65393;53.160;18.170;2022-11-20T21:31:48;100468.34;;;-0.54;80.30
76551;BME280;65393;53.160;18.170;2022-11-20T21:34:15;100469.57;;;-0.53;80.12
76551;BME280;65393;53.160;18.170;2022-11-20T21:36:42;100465.73;;;-0.55;80.05
76551;BME280;65393;53.160;18.170;2022-11-20T21:39:09;100465.38;;;-0.55;80.25
76551;BME280;65393;53.160;18.170;2022-11-20T21:41:36;100466.25;;;-0.54;80.32
76551;BME280;65393;53.160;18.170;2022-11-20T21:44:03;100464.33;;;-0.54;79.97
76551;BME280;65393;53.160;18.170;2022-11-20T21:46:31;100460.15;;;-0.55;80.46
76551;BME280;65393;53.160;18.170;2022-11-20T21:48:58;100462.05;;;-0.56;80.40
76551;BME280;65393;53.160;18.170;2022-11-20T21:51:25;100457.51;;;-0.58;80.49
76551;BME280;65393;53.160;18.170;2022-11-20T21:53:53;100457.50;;;-0.59;80.30
76551;BME280;65393;53.160;18.170;2022-11-20T21:56:22;100454.73;;;-0.62;80.42
76551;BME280;65393;53.160;18.170;2022-11-20T21:58:49;100456.47;;;-0.63;80.43
76551;BME280;65393;53.160;18.170;2022-11-20T22:01:21;100457.85;;;-0.60;80.20
76551;BME280;65393;53.160;18.170;2022-11-20T22:03:56;100451.91;;;-0.60;79.95
76551;BME280;65393;53.160;18.170;2022-11-20T22:06:29;100451.94;;;-0.62;79.93
76551;BME280;65393;53.160;18.170;2022-11-20T22:08:57;100453.50;;;-0.63;80.20
76551;BME280;65393;53.160;18.170;2022-11-20T22:11:23;100449.66;;;-0.65;80.26
76551;BME280;65393;53.160;18.170;2022-11-20T22:13:49;100440.94;;;-0.65;80.37
76551;BME280;65393;53.160;18.170;2022-11-20T22:16:34;100439.89;;;-0.66;80.44
76551;BME280;65393;53.160;18.170;2022-11-20T22:19:01;100441.83;;;-0.62;79.89
76551;BME280;65393;53.160;18.170;2022-11-20T22:21:29;100439.92;;;-0.57;80.07
76551;BME280;65393;53.160;18.170;2022-11-20T22:23:55;100430.67;;;-0.56;79.96
76551;BME280;65393;53.160;18.170;2022-11-20T22:26:27;100432.59;;;-0.58;79.81
76551;BME280;65393;53.160;18.170;2022-11-20T22:28:55;100431.52;;;-0.60;79.84
76551;BME280;65393;53.160;18.170;2022-11-20T22:31:23;100437.82;;;-0.62;79.98
76551;BME280;65393;53.160;18.170;2022-11-20T22:33:50;100437.64;;;-0.64;79.97
76551;BME280;65393;53.160;18.170;2022-11-20T22:36:21;100448.45;;;-0.64;80.25
76551;BME280;65393;53.160;18.170;2022-11-20T22:38:48;100448.61;;;-0.62;79.99
76551;BME280;65393;53.160;18.170;2022-11-20T22:41:21;100457.33;;;-0.59;79.93
76551;BME280;65393;53.160;18.170;2022-11-20T22:43:53;100460.99;;;-0.60;79.93
76551;BME280;65393;53.160;18.170;2022-11-20T22:46:21;100461.86;;;-0.59;80.00
76551;BME280;65393;53.160;18.170;2022-11-20T22:51:20;100451.75;;;-0.60;80.00
76551;BME280;65393;53.160;18.170;2022-11-20T22:53:47;100450.36;;;-0.61;80.27
76551;BME280;65393;53.160;18.170;2022-11-20T22:56:14;100451.57;;;-0.59;80.02
76551;BME280;65393;53.160;18.170;2022-11-20T22:58:46;100446.20;;;-0.56;80.09
76551;BME280;65393;53.160;18.170;2022-11-20T23:01:13;100442.52;;;-0.56;80.01
76551;BME280;65393;53.160;18.170;2022-11-20T23:03:42;100433.81;;;-0.58;79.73
76551;BME280;65393;53.160;18.170;2022-11-20T23:06:09;100430.32;;;-0.59;79.72
76551;BME280;65393;53.160;18.170;2022-11-20T23:08:36;100432.41;;;-0.63;80.12
76551;BME280;65393;53.160;18.170;2022-11-20T23:11:05;100434.84;;;-0.66;79.80
76551;BME280;65393;53.160;18.170;2022-11-20T23:13:32;100431.35;;;-0.66;79.78
76551;BME280;65393;53.160;18.170;2022-11-20T23:18:35;100422.45;;;-0.71;79.41
76551;BME280;65393;53.160;18.170;2022-11-20T23:21:05;100419.31;;;-0.74;79.79
76551;BME280;65393;53.160;18.170;2022-11-20T23:23:32;100423.65;;;-0.78;79.77
76551;BME280;65393;53.160;18.170;2022-11-20T23:26:06;100419.63;;;-0.84;79.88
76551;BME280;65393;53.160;18.170;2022-11-20T23:28:33;100413.52;;;-0.88;79.75
76551;BME280;65393;53.160;18.170;2022-11-20T23:30:59;100413.50;;;-0.89;79.81
76551;BME280;65393;53.160;18.170;2022-11-20T23:33:26;100412.97;;;-0.91;79.63
76551;BME280;65393;53.160;18.170;2022-11-20T23:35:52;100412.63;;;-0.94;79.61
76551;BME280;65393;53.160;18.170;2022-11-20T23:38:18;100404.58;;;-0.99;79.33
76551;BME280;65393;53.160;18.170;2022-11-20T23:40:49;100406.33;;;-1.04;79.37
76551;BME280;65393;53.160;18.170;2022-11-20T23:43:16;100410.46;;;-1.10;79.42
76551;BME280;65393;53.160;18.170;2022-11-20T23:45:44;100413.77;;;-1.14;79.48
76551;BME280;65393;53.160;18.170;2022-11-20T23:48:11;100411.31;;;-1.17;79.44
76551;BME280;65393;53.160;18.170;2022-11-20T23:50:37;100412.33;;;-1.23;79.43
76551;BME280;65393;53.160;18.170;2022-11-20T23:53:04;100416.29;;;-1.30;79.25
76551;BME280;65393;53.160;18.170;2022-11-20T23:55:30;100416.26;;;-1.38;79.32
76551;BME280;65393;53.160;18.170;2022-11-20T23:57:56;100414.81;;;-1.48;79.76
